Time;durP1;ratioP1;P1;durP2;ratioP2;P2;SDS_P1;SDS_P2;PMS_P1;PMS_P2;Temp;Humidity;BMP_temperature;BMP_pressure;BME280_temperature;BME280_humidity;BME280_pressure;Samples;Min_cycle;Max_cycle;Signal;HPM_P1;HPM_P2
2023/06/29 00:00:43;;;;;;;0.57;0.57;;;12.20;99.90;;;;;;5015689;28;20722;-92
2023/06/29 00:03:14;;;;;;;0.88;0.50;;;12.30;99.90;;;;;;5011943;28;20205;-87
2023/06/29 00:05:45;;;;;;;1.38;0.80;;;12.30;99.90;;;;;;5004559;28;20202;-92
2023/06/29 00:08:17;;;;;;;0.68;0.50;;;12.40;99.90;;;;;;5013755;28;20203;-86
2023/06/29 00:10:48;;;;;;;0.60;0.60;;;12.50;99.90;;;;;;5003328;28;20202;-90
2023/06/29 00:13:21;;;;;;;0.60;0.60;;;12.60;99.90;;;;;;5015085;28;20225;-91
2023/06/29 00:15:52;;;;;;;0.68;0.60;;;12.60;99.90;;;;;;5011307;28;20210;-88
2023/06/29 00:18:23;;;;;;;0.70;0.60;;;12.60;99.90;;;;;;5016695;28;20245;-89
2023/06/29 00:20:55;;;;;;;0.95;0.80;;;12.70;99.90;;;;;;5015364;28;20231;-88
2023/06/29 00:23:26;;;;;;;1.17;0.60;;;12.70;99.90;;;;;;5015536;28;20209;-89
2023/06/29 00:25:58;;;;;;;0.52;0.52;;;12.80;99.90;;;;;;5013508;28;20207;-88
2023/06/29 00:28:31;;;;;;;2.88;0.70;;;12.80;99.90;;;;;;5016156;28;20191;-89
2023/06/29 00:31:02;;;;;;;0.50;0.50;;;12.90;99.90;;;;;;5010567;28;20195;-90
2023/06/29 00:33:33;;;;;;;0.80;0.70;;;12.90;99.90;;;;;;5013928;28;20199;-92
2023/06/29 00:36:04;;;;;;;2.05;0.60;;;13.00;99.90;;;;;;5010196;28;20206;-94
2023/06/29 00:38:35;;;;;;;1.58;0.63;;;13.20;99.90;;;;;;5007704;28;20210;-83
2023/06/29 00:41:06;;;;;;;0.88;0.80;;;13.20;99.90;;;;;;5013846;28;20222;-90
2023/06/29 00:43:39;;;;;;;2.15;0.50;;;13.30;99.90;;;;;;5010553;28;20206;-83
2023/06/29 00:46:11;;;;;;;0.65;0.60;;;13.40;99.90;;;;;;5015831;28;20207;-77
2023/06/29 00:48:42;;;;;;;1.50;0.60;;;13.40;99.90;;;;;;5014763;28;20199;-89
2023/06/29 00:51:14;;;;;;;0.95;0.73;;;13.50;99.90;;;;;;5014272;28;20195;-86
2023/06/29 00:53:46;;;;;;;0.50;0.50;;;13.60;99.90;;;;;;5014271;28;20199;-88
2023/06/29 00:56:17;;;;;;;1.70;0.60;;;13.60;99.90;;;;;;5012345;28;20203;-91
2023/06/29 00:58:50;;;;;;;1.25;0.70;;;13.60;99.90;;;;;;5007897;28;20206;-87
2023/06/29 01:01:21;;;;;;;2.38;1.10;;;13.50;99.90;;;;;;5010166;28;20245;-89
2023/06/29 01:03:52;;;;;;;0.70;0.50;;;13.60;99.90;;;;;;5014679;28;20209;-90
2023/06/29 01:06:29;;;;;;;1.83;0.80;;;13.60;99.90;;;;;;5015624;28;20191;-90
2023/06/29 01:09:04;;;;;;;1.33;0.50;;;13.70;99.90;;;;;;5011832;28;20310;-87
2023/06/29 01:11:37;;;;;;;0.50;0.50;;;13.70;99.90;;;;;;5012257;28;20727;-85
2023/06/29 01:14:13;;;;;;;2.15;0.68;;;13.70;99.90;;;;;;5009496;28;20720;-88
2023/06/29 01:16:45;;;;;;;0.98;0.50;;;13.80;99.90;;;;;;5009132;28;20211;-87
2023/06/29 01:19:22;;;;;;;1.23;0.50;;;13.90;99.90;;;;;;5010148;28;20569;-87
2023/06/29 01:22:00;;;;;;;0.55;0.50;;;14.00;99.90;;;;;;5012281;28;20226;-85
2023/06/29 01:24:32;;;;;;;0.65;0.60;;;14.10;99.90;;;;;;5014327;28;20209;-87
2023/06/29 01:27:06;;;;;;;0.50;0.45;;;14.20;99.90;;;;;;4995293;28;20192;-86
2023/06/29 01:29:37;;;;;;;0.57;0.55;;;14.30;99.90;;;;;;5009357;28;20655;-87
2023/06/29 01:32:10;;;;;;;3.50;0.50;;;14.30;99.90;;;;;;5012216;28;20547;-87
2023/06/29 01:34:42;;;;;;;2.10;0.82;;;14.30;99.90;;;;;;5013213;28;20191;-86
2023/06/29 01:37:31;;;;;;;0.95;0.70;;;14.20;99.90;;;;;;5013277;28;20202;-85
2023/06/29 01:40:06;;;;;;;0.40;0.40;;;14.20;99.90;;;;;;5009558;28;20203;-78
2023/06/29 01:42:40;;;;;;;1.52;0.52;;;14.20;99.90;;;;;;5014630;28;20222;-75
2023/06/29 01:45:12;;;;;;;0.63;0.30;;;14.30;99.90;;;;;;5013000;28;20209;-84
2023/06/29 01:47:44;;;;;;;0.65;0.40;;;14.30;99.90;;;;;;5012818;28;20257;-87
2023/06/29 01:50:16;;;;;;;0.38;0.30;;;14.40;99.90;;;;;;5011061;28;20233;-85
2023/06/29 01:52:48;;;;;;;0.50;0.50;;;14.40;99.90;;;;;;5011746;28;20235;-85
2023/06/29 01:55:19;;;;;;;0.40;0.40;;;14.50;99.90;;;;;;5012103;28;20203;-85
2023/06/29 01:57:52;;;;;;;1.17;0.35;;;14.50;99.90;;;;;;5008618;28;20674;-83
2023/06/29 02:00:23;;;;;;;0.68;0.30;;;14.50;99.90;;;;;;5004309;28;20667;-85
2023/06/29 02:02:54;;;;;;;0.30;0.30;;;14.50;99.90;;;;;;5014080;28;20207;-87
2023/06/29 02:05:25;;;;;;;1.23;0.88;;;14.60;99.90;;;;;;5012116;28;20207;-84
2023/06/29 02:07:56;;;;;;;0.88;0.60;;;14.60;99.90;;;;;;5009659;28;20211;-83
2023/06/29 02:10:27;;;;;;;1.00;0.40;;;14.50;99.90;;;;;;5011184;28;20720;-85
2023/06/29 02:13:02;;;;;;;0.30;0.30;;;14.50;99.90;;;;;;5011992;28;20218;-83
2023/06/29 02:15:33;;;;;;;0.32;0.32;;;14.50;99.90;;;;;;5004962;28;20197;-84
2023/06/29 02:18:04;;;;;;;0.30;0.30;;;14.40;99.90;;;;;;5011058;28;20195;-87
2023/06/29 02:20:35;;;;;;;1.05;0.40;;;14.40;99.90;;;;;;5006807;28;20265;-87
2023/06/29 02:23:06;;;;;;;0.65;0.40;;;14.50;99.90;;;;;;5012030;28;20210;-85
2023/06/29 02:25:37;;;;;;;0.30;0.30;;;14.60;99.90;;;;;;5012819;28;20206;-82
2023/06/29 02:28:12;;;;;;;0.40;0.40;;;14.60;99.90;;;;;;5008361;28;20199;-87
2023/06/29 02:30:43;;;;;;;0.40;0.40;;;14.70;99.90;;;;;;5013901;28;20713;-85
2023/06/29 02:33:14;;;;;;;1.10;0.40;;;14.80;99.90;;;;;;5013637;28;20195;-86
2023/06/29 02:35:45;;;;;;;0.52;0.40;;;14.90;99.90;;;;;;5007648;28;20199;-85
2023/06/29 02:38:16;;;;;;;0.50;0.38;;;15.10;99.90;;;;;;5002552;28;20215;-87
2023/06/29 02:40:48;;;;;;;0.40;0.40;;;15.20;99.90;;;;;;5003277;28;20210;-84
2023/06/29 02:43:21;;;;;;;0.38;0.38;;;15.30;99.90;;;;;;5006654;28;20192;-83
2023/06/29 02:45:52;;;;;;;0.30;0.30;;;15.20;99.90;;;;;;5029431;28;20668;-83
2023/06/29 02:48:23;;;;;;;1.25;0.40;;;15.20;99.90;;;;;;5029383;28;20186;-85
2023/06/29 02:50:55;;;;;;;0.43;0.43;;;15.30;99.90;;;;;;5013577;28;20227;-84
2023/06/29 02:53:26;;;;;;;0.35;0.35;;;15.30;99.90;;;;;;5012373;28;20663;-89
2023/06/29 02:55:57;;;;;;;0.40;0.30;;;15.30;99.90;;;;;;5014336;28;20251;-85
2023/06/29 02:58:30;;;;;;;0.40;0.38;;;15.30;99.90;;;;;;5033346;28;20274;-87
2023/06/29 03:01:01;;;;;;;0.38;0.30;;;15.30;99.90;;;;;;5023422;28;20230;-85
2023/06/29 03:03:32;;;;;;;0.80;0.50;;;15.30;99.90;;;;;;5013546;28;20201;-83
2023/06/29 03:06:03;;;;;;;0.30;0.30;;;15.30;99.90;;;;;;5011968;28;20603;-84
2023/06/29 03:08:34;;;;;;;0.30;0.30;;;15.40;99.90;;;;;;5012046;28;20570;-85
2023/06/29 03:11:06;;;;;;;1.85;0.38;;;15.50;99.90;;;;;;5013272;28;20214;-75
2023/06/29 03:13:39;;;;;;;0.98;0.40;;;15.40;99.90;;;;;;5016496;28;20250;-74
2023/06/29 03:16:10;;;;;;;0.40;0.30;;;15.50;99.90;;;;;;5015538;28;20676;-82
2023/06/29 03:18:41;;;;;;;0.50;0.50;;;15.40;99.90;;;;;;5017358;28;20224;-86
2023/06/29 03:21:12;;;;;;;1.48;0.38;;;15.30;99.90;;;;;;5017237;28;20732;-77
2023/06/29 03:23:43;;;;;;;0.95;0.40;;;15.40;99.90;;;;;;5013821;28;20201;-83
2023/06/29 03:26:14;;;;;;;0.70;0.50;;;15.40;99.90;;;;;;5013172;28;20209;-85
2023/06/29 03:28:47;;;;;;;0.82;0.40;;;15.40;99.90;;;;;;5015523;28;20198;-84
2023/06/29 03:31:18;;;;;;;0.40;0.40;;;15.50;99.90;;;;;;5017202;28;20218;-86
2023/06/29 03:33:49;;;;;;;0.60;0.57;;;15.60;99.90;;;;;;5029211;28;20206;-84
2023/06/29 03:36:21;;;;;;;1.02;0.50;;;15.60;99.90;;;;;;5030489;28;20202;-84
2023/06/29 03:38:52;;;;;;;0.30;0.30;;;15.60;99.90;;;;;;5017503;28;20191;-75
2023/06/29 03:41:23;;;;;;;1.38;0.40;;;15.60;99.90;;;;;;5017494;28;20666;-87
2023/06/29 03:43:56;;;;;;;0.57;0.40;;;15.70;99.90;;;;;;5009767;28;20195;-85
2023/06/29 03:46:28;;;;;;;0.30;0.30;;;15.70;99.90;;;;;;5009095;28;20206;-85
2023/06/29 03:48:59;;;;;;;1.35;0.57;;;15.80;99.90;;;;;;4997227;28;20203;-85
2023/06/29 03:51:30;;;;;;;0.47;0.47;;;15.80;99.90;;;;;;5006778;28;20218;-81
2023/06/29 03:54:01;;;;;;;1.10;0.60;;;15.80;99.90;;;;;;5016775;28;20561;-85
2023/06/29 03:56:33;;;;;;;1.40;0.50;;;15.80;99.90;;;;;;5015909;28;20289;-84
2023/06/29 03:59:06;;;;;;;0.93;0.30;;;15.60;99.90;;;;;;5013709;28;20249;-85
2023/06/29 04:01:37;;;;;;;0.63;0.50;;;15.70;99.90;;;;;;5003295;28;20204;-81
2023/06/29 04:04:08;;;;;;;2.92;0.40;;;15.70;99.90;;;;;;5009373;28;20209;-84
2023/06/29 04:06:39;;;;;;;0.63;0.40;;;15.80;99.90;;;;;;5012088;28;20202;-85
2023/06/29 04:09:12;;;;;;;0.88;0.50;;;15.80;99.90;;;;;;5014862;28;20195;-84
2023/06/29 04:11:43;;;;;;;1.75;0.68;;;15.70;99.90;;;;;;5014115;28;20281;-86
2023/06/29 04:14:16;;;;;;;0.60;0.60;;;15.60;99.90;;;;;;5013087;28;20217;-85
2023/06/29 04:16:47;;;;;;;0.50;0.40;;;15.70;99.90;;;;;;5015017;28;20593;-84
2023/06/29 04:19:18;;;;;;;0.30;0.30;;;15.60;99.90;;;;;;5013732;28;20233;-84
2023/06/29 04:21:49;;;;;;;0.30;0.30;;;15.60;99.90;;;;;;5013136;28;20599;-82
2023/06/29 04:24:20;;;;;;;0.32;0.32;;;15.50;99.90;;;;;;5013487;28;20213;-86
2023/06/29 04:26:51;;;;;;;0.30;0.30;;;15.50;99.90;;;;;;5016266;28;20191;-83
2023/06/29 04:29:25;;;;;;;0.40;0.38;;;15.40;99.90;;;;;;5014440;28;20229;-86
2023/06/29 04:31:56;;;;;;;1.98;0.35;;;15.50;99.90;;;;;;5012163;28;20218;-82
2023/06/29 04:34:28;;;;;;;0.20;0.20;;;15.50;99.90;;;;;;5014972;28;20207;-84
2023/06/29 04:37:02;;;;;;;2.70;0.73;;;15.40;99.90;;;;;;5013950;28;20210;-81
2023/06/29 04:39:33;;;;;;;2.53;0.50;;;15.40;99.90;;;;;;5016006;28;20187;-83
2023/06/29 04:42:05;;;;;;;3.65;0.90;;;15.50;99.90;;;;;;5008834;28;20971;-83
2023/06/29 04:44:38;;;;;;;3.28;0.70;;;15.50;99.90;;;;;;5011553;28;20195;-84
2023/06/29 04:47:10;;;;;;;0.55;0.55;;;15.40;99.90;;;;;;5015702;28;20249;-82
2023/06/29 04:49:44;;;;;;;1.55;0.30;;;15.50;99.90;;;;;;5010971;28;20214;-83
2023/06/29 04:52:18;;;;;;;1.00;0.47;;;15.50;99.90;;;;;;5014899;28;20592;-83
2023/06/29 04:54:49;;;;;;;0.30;0.30;;;15.50;99.90;;;;;;5013071;28;20206;-83
2023/06/29 04:57:20;;;;;;;0.95;0.30;;;15.40;99.90;;;;;;5015613;28;20191;-82
2023/06/29 04:59:53;;;;;;;1.48;0.60;;;15.40;99.90;;;;;;5013879;28;20201;-83
2023/06/29 05:02:24;;;;;;;1.42;0.80;;;15.50;99.90;;;;;;5012086;28;20199;-82
2023/06/29 05:04:55;;;;;;;1.85;0.60;;;15.50;99.90;;;;;;5013984;28;20206;-84
2023/06/29 05:07:27;;;;;;;0.47;0.40;;;15.50;99.90;;;;;;5013361;28;20202;-74
2023/06/29 05:09:58;;;;;;;0.55;0.47;;;15.50;99.90;;;;;;5011599;28;20301;-77
2023/06/29 05:12:29;;;;;;;0.90;0.40;;;15.60;99.90;;;;;;5012749;28;20218;-84
2023/06/29 05:15:02;;;;;;;1.23;0.40;;;15.60;99.90;;;;;;5015255;28;20199;-78
2023/06/29 05:17:33;;;;;;;0.57;0.50;;;15.60;99.90;;;;;;5014532;28;20274;-79
2023/06/29 05:20:06;;;;;;;0.95;0.40;;;15.60;99.90;;;;;;4995492;28;20239;-82
2023/06/29 05:22:37;;;;;;;0.43;0.40;;;15.50;99.90;;;;;;4995507;28;20192;-83
2023/06/29 05:25:08;;;;;;;0.50;0.40;;;15.50;99.90;;;;;;5003876;28;20213;-83
2023/06/29 05:27:39;;;;;;;0.52;0.30;;;15.40;99.90;;;;;;5015312;28;20191;-84
2023/06/29 05:30:14;;;;;;;1.67;0.50;;;15.30;99.90;;;;;;5014901;28;20191;-82
2023/06/29 05:32:45;;;;;;;0.77;0.50;;;15.20;99.90;;;;;;5013855;28;20206;-85
2023/06/29 05:35:16;;;;;;;1.00;0.40;;;15.30;99.90;;;;;;5014869;28;20191;-84
2023/06/29 05:37:48;;;;;;;1.75;0.40;;;15.30;99.90;;;;;;5014845;28;20551;-86
2023/06/29 05:40:19;;;;;;;1.30;0.55;;;15.20;99.90;;;;;;5014763;28;20202;-87
2023/06/29 05:42:50;;;;;;;0.47;0.43;;;15.10;99.90;;;;;;5014411;28;20203;-84
2023/06/29 05:45:23;;;;;;;1.27;0.43;;;15.10;99.90;;;;;;5014655;28;20187;-82
2023/06/29 05:47:54;;;;;;;1.67;0.50;;;15.10;99.90;;;;;;5014599;28;20202;-84
2023/06/29 05:50:26;;;;;;;0.60;0.40;;;15.10;99.90;;;;;;5014465;28;20230;-85
2023/06/29 05:52:57;;;;;;;0.52;0.50;;;15.10;99.90;;;;;;5014689;28;20202;-74
2023/06/29 05:55:28;;;;;;;1.55;0.60;;;15.10;99.90;;;;;;5014515;28;20192;-74
2023/06/29 05:57:59;;;;;;;0.40;0.40;;;15.10;99.90;;;;;;5014254;28;20201;-74
2023/06/29 06:00:32;;;;;;;0.73;0.43;;;15.10;99.90;;;;;;5014021;28;20209;-75
2023/06/29 06:03:03;;;;;;;0.77;0.50;;;15.10;99.90;;;;;;5014439;28;20218;-75
2023/06/29 06:05:35;;;;;;;1.73;0.60;;;15.10;99.90;;;;;;5014530;28;20207;-81
2023/06/29 06:08:06;;;;;;;0.45;0.45;;;14.90;99.90;;;;;;5013640;28;20199;-75
2023/06/29 06:10:37;;;;;;;0.55;0.50;;;14.80;99.90;;;;;;5014162;28;20219;-75
2023/06/29 06:13:08;;;;;;;1.52;0.50;;;14.80;99.90;;;;;;5002989;28;20227;-78
2023/06/29 06:15:42;;;;;;;1.83;0.57;;;14.70;99.90;;;;;;5009246;28;20209;-77
2023/06/29 06:18:13;;;;;;;0.90;0.60;;;14.60;99.90;;;;;;5012100;28;20616;-78
2023/06/29 06:20:44;;;;;;;1.27;0.50;;;14.60;99.90;;;;;;5012298;28;20718;-82
2023/06/29 06:23:15;;;;;;;4.35;0.50;;;14.50;99.90;;;;;;5013949;28;20196;-76
2023/06/29 06:25:47;;;;;;;0.52;0.40;;;14.30;99.90;;;;;;5013885;28;20202;-76
2023/06/29 06:28:18;;;;;;;1.00;0.50;;;14.30;99.90;;;;;;4997427;28;20562;-75
2023/06/29 06:30:51;;;;;;;1.20;0.50;;;14.20;99.90;;;;;;4994366;28;20226;-78
2023/06/29 06:33:22;;;;;;;2.05;0.70;;;14.10;99.90;;;;;;5004543;28;20210;-76
2023/06/29 06:35:53;;;;;;;1.40;0.50;;;14.10;99.90;;;;;;5013890;28;20198;-80
2023/06/29 06:38:24;;;;;;;1.67;0.50;;;14.10;99.90;;;;;;5014137;28;20206;-76
2023/06/29 06:40:55;;;;;;;1.75;0.50;;;14.00;99.90;;;;;;5004090;28;20207;-84
2023/06/29 06:43:26;;;;;;;1.27;0.47;;;13.90;99.90;;;;;;5027084;28;20229;-76
2023/06/29 06:45:59;;;;;;;1.38;0.70;;;13.90;99.90;;;;;;5013791;28;20206;-76
2023/06/29 06:48:30;;;;;;;1.52;0.65;;;13.80;99.90;;;;;;5012466;28;20199;-75
2023/06/29 06:51:01;;;;;;;0.75;0.57;;;13.70;99.90;;;;;;5010278;28;20226;-82
2023/06/29 06:53:32;;;;;;;0.77;0.60;;;13.60;99.90;;;;;;5013029;28;20198;-82
2023/06/29 06:56:03;;;;;;;0.93;0.60;;;13.50;99.90;;;;;;5009833;28;20191;-82
2023/06/29 06:58:35;;;;;;;2.78;0.70;;;13.50;99.90;;;;;;5028225;28;20197;-82
2023/06/29 07:01:08;;;;;;;0.85;0.60;;;13.40;99.90;;;;;;5019873;28;20198;-83
2023/06/29 07:03:39;;;;;;;0.70;0.60;;;13.30;99.90;;;;;;4994627;28;20250;-83
2023/06/29 07:06:10;;;;;;;2.80;0.85;;;13.30;99.90;;;;;;5008188;28;20223;-84
2023/06/29 07:08:41;;;;;;;0.50;0.50;;;13.30;99.90;;;;;;5004028;28;20195;-85
2023/06/29 07:11:12;;;;;;;1.45;0.73;;;13.10;99.90;;;;;;5019874;28;20214;-84
2023/06/29 07:13:43;;;;;;;1.77;0.80;;;13.10;99.90;;;;;;5005902;28;20226;-85
2023/06/29 07:16:16;;;;;;;1.65;1.00;;;13.10;99.90;;;;;;5011480;28;20210;-84
2023/06/29 07:19:05;;;;;;;1.13;0.80;;;13.00;99.90;;;;;;5013234;28;20203;-85
2023/06/29 07:21:36;;;;;;;1.30;0.70;;;13.00;99.90;;;;;;5012351;28;20235;-84
2023/06/29 07:24:08;;;;;;;2.05;1.10;;;12.90;99.90;;;;;;5012715;28;20199;-84
2023/06/29 07:26:39;;;;;;;2.00;0.90;;;12.90;99.90;;;;;;5012121;28;20281;-83
2023/06/29 07:29:11;;;;;;;0.80;0.80;;;12.80;99.90;;;;;;5010909;28;20194;-85
2023/06/29 07:31:44;;;;;;;1.52;0.70;;;12.80;99.90;;;;;;5011519;28;20221;-83
2023/06/29 07:34:15;;;;;;;0.98;0.80;;;12.70;99.90;;;;;;5013039;28;20195;-84
2023/06/29 07:36:46;;;;;;;1.60;1.00;;;12.70;99.90;;;;;;5011112;28;20213;-84
2023/06/29 07:39:17;;;;;;;1.27;0.73;;;12.60;99.90;;;;;;5012079;28;20206;-84
2023/06/29 07:41:48;;;;;;;1.65;0.90;;;12.60;99.90;;;;;;5011043;28;20217;-85
2023/06/29 07:44:19;;;;;;;2.03;1.10;;;12.60;99.90;;;;;;5013041;28;20290;-83
2023/06/29 07:46:53;;;;;;;1.65;1.00;;;12.50;99.90;;;;;;5012191;28;20203;-83
2023/06/29 07:49:24;;;;;;;2.90;0.95;;;12.50;99.90;;;;;;5012935;28;20195;-82
2023/06/29 07:51:55;;;;;;;1.92;1.10;;;12.40;99.90;;;;;;5011837;28;20222;-81
2023/06/29 07:54:27;;;;;;;3.10;1.10;;;12.40;99.90;;;;;;5011944;28;20257;-81
2023/06/29 07:56:58;;;;;;;3.25;1.00;;;12.30;99.90;;;;;;5008145;28;20194;-81
2023/06/29 07:59:29;;;;;;;1.73;1.00;;;12.30;99.90;;;;;;5012384;28;20208;-82
2023/06/29 08:02:02;;;;;;;2.17;1.00;;;12.20;99.90;;;;;;5017988;28;20199;-80
2023/06/29 08:04:33;;;;;;;2.67;0.90;;;12.20;99.90;;;;;;5014341;28;20210;-84
2023/06/29 08:07:04;;;;;;;1.70;1.00;;;12.10;99.90;;;;;;5016110;28;20201;-81
2023/06/29 08:09:35;;;;;;;2.00;1.00;;;12.10;99.90;;;;;;5010344;28;20227;-81
2023/06/29 08:12:07;;;;;;;3.17;1.02;;;12.10;99.90;;;;;;5013818;28;20234;-75
2023/06/29 08:14:40;;;;;;;3.42;1.42;;;12.00;99.90;;;;;;5013977;28;20199;-74
2023/06/29 08:17:13;;;;;;;2.30;1.05;;;12.00;99.90;;;;;;5012325;28;20198;-76
2023/06/29 08:19:44;;;;;;;3.58;0.93;;;11.90;99.90;;;;;;5014227;28;20230;-73
2023/06/29 08:22:15;;;;;;;2.45;1.02;;;11.80;99.90;;;;;;5002099;28;20685;-76
2023/06/29 08:24:46;;;;;;;1.52;0.88;;;11.80;99.90;;;;;;5012071;28;20210;-78
2023/06/29 08:27:17;;;;;;;1.63;1.00;;;11.80;99.90;;;;;;5015376;28;20203;-75
2023/06/29 08:29:49;;;;;;;1.83;1.20;;;11.80;99.90;;;;;;5014398;28;20206;-73
2023/06/29 08:32:22;;;;;;;2.38;1.00;;;11.70;99.90;;;;;;5013031;28;20218;-74
2023/06/29 08:34:53;;;;;;;1.40;1.00;;;11.80;99.90;;;;;;5012934;28;20231;-75
2023/06/29 08:37:24;;;;;;;1.88;0.90;;;11.70;99.90;;;;;;5014426;28;20222;-74
2023/06/29 08:39:56;;;;;;;2.65;1.00;;;11.70;99.90;;;;;;5010651;28;20214;-75
2023/06/29 08:42:27;;;;;;;3.35;1.80;;;11.60;99.90;;;;;;5014764;28;20309;-75
2023/06/29 08:44:58;;;;;;;1.88;0.95;;;11.60;99.90;;;;;;5002769;28;20278;-74
2023/06/29 08:47:33;;;;;;;3.58;1.00;;;11.50;99.90;;;;;;5007506;28;20196;-76
2023/06/29 08:50:06;;;;;;;1.67;1.10;;;11.50;99.90;;;;;;5012451;28;20194;-75
2023/06/29 08:52:39;;;;;;;1.80;1.30;;;11.50;99.90;;;;;;5013640;28;20227;-74
2023/06/29 08:55:10;;;;;;;2.08;1.30;;;11.50;99.90;;;;;;5014713;28;20230;-82
2023/06/29 08:57:42;;;;;;;2.35;1.30;;;11.40;99.90;;;;;;5014218;28;20199;-84
2023/06/29 09:00:15;;;;;;;2.25;1.40;;;11.40;99.90;;;;;;5026623;28;20194;-80
2023/06/29 09:02:49;;;;;;;2.38;1.48;;;11.40;99.90;;;;;;5003439;28;20291;-81
2023/06/29 09:05:20;;;;;;;2.63;1.52;;;11.30;99.90;;;;;;5014928;28;20203;-78
2023/06/29 09:07:53;;;;;;;3.13;1.70;;;11.30;99.90;;;;;;5013763;28;20266;-80
2023/06/29 09:10:24;;;;;;;5.30;1.75;;;11.20;99.90;;;;;;5011262;28;20905;-73
2023/06/29 09:12:57;;;;;;;3.78;1.50;;;11.20;99.90;;;;;;5015360;28;20239;-75
2023/06/29 09:15:30;;;;;;;2.00;1.42;;;11.10;99.90;;;;;;5016237;28;20205;-83
2023/06/29 09:18:05;;;;;;;2.40;1.42;;;11.00;99.90;;;;;;5015073;28;20203;-78
2023/06/29 09:20:38;;;;;;;3.63;1.48;;;11.00;99.90;;;;;;5014467;28;20607;-82
2023/06/29 09:23:09;;;;;;;1.60;1.08;;;11.00;99.90;;;;;;5014901;28;20673;-82
2023/06/29 09:25:42;;;;;;;2.75;1.10;;;10.90;99.90;;;;;;5014800;28;20373;-76
2023/06/29 09:28:13;;;;;;;3.13;1.10;;;10.90;99.90;;;;;;5014604;28;20230;-82
2023/06/29 09:30:45;;;;;;;1.80;1.08;;;10.90;99.90;;;;;;5013350;28;20195;-81
2023/06/29 09:33:19;;;;;;;1.33;0.90;;;10.90;99.90;;;;;;5011412;28;20214;-83
2023/06/29 09:35:51;;;;;;;2.78;0.93;;;10.80;99.90;;;;;;5013989;28;20243;-83
2023/06/29 09:38:22;;;;;;;2.10;1.15;;;10.80;99.90;;;;;;5014672;28;20205;-79
2023/06/29 09:40:54;;;;;;;1.60;1.00;;;10.70;99.90;;;;;;5012518;28;20211;-83
2023/06/29 09:43:29;;;;;;;2.58;1.10;;;10.70;99.90;;;;;;5013127;28;20286;-83
2023/06/29 09:46:08;;;;;;;2.70;1.17;;;10.70;99.90;;;;;;5012354;28;20205;-82
2023/06/29 09:48:50;;;;;;;2.17;1.30;;;10.70;99.90;;;;;;5005248;28;20682;-75
2023/06/29 09:51:24;;;;;;;2.15;1.30;;;10.70;99.90;;;;;;5001364;28;20203;-75
2023/06/29 09:53:55;;;;;;;2.70;1.20;;;10.60;99.90;;;;;;5002271;28;20681;-79
2023/06/29 09:56:27;;;;;;;1.63;1.30;;;10.60;99.90;;;;;;5014225;28;20614;-82
2023/06/29 09:59:02;;;;;;;2.22;1.58;;;10.50;99.90;;;;;;5013338;28;20199;-75
2023/06/29 10:01:35;;;;;;;2.40;1.35;;;10.50;99.90;;;;;;5009277;28;20194;-75
2023/06/29 10:04:08;;;;;;;3.05;1.50;;;10.50;99.90;;;;;;5010353;28;20673;-77
2023/06/29 10:06:45;;;;;;;2.63;1.48;;;10.50;99.90;;;;;;5011146;28;20674;-78
2023/06/29 10:09:20;;;;;;;4.03;1.58;;;10.50;99.90;;;;;;5014065;28;20233;-79
2023/06/29 10:11:56;;;;;;;3.53;1.40;;;10.50;99.90;;;;;;5008598;28;20226;-78
2023/06/29 10:14:27;;;;;;;1.48;1.13;;;10.50;99.90;;;;;;5010562;28;20220;-81
2023/06/29 10:17:00;;;;;;;2.28;1.20;;;10.50;99.90;;;;;;5011658;28;20203;-81
2023/06/29 10:19:35;;;;;;;1.92;1.17;;;10.50;99.90;;;;;;5012292;28;20207;-77
2023/06/29 10:22:08;;;;;;;2.28;1.30;;;10.50;99.90;;;;;;5004342;28;20195;-82
2023/06/29 10:24:42;;;;;;;2.05;1.10;;;10.50;99.90;;;;;;5013291;28;20199;-79
2023/06/29 10:27:14;;;;;;;1.73;1.10;;;10.50;99.90;;;;;;5010487;28;20203;-76
2023/06/29 10:29:50;;;;;;;1.95;0.90;;;10.50;99.90;;;;;;5011767;28;20203;-76
2023/06/29 10:32:42;;;;;;;1.40;1.05;;;10.40;99.90;;;;;;5012002;28;20226;-76
2023/06/29 10:35:16;;;;;;;1.40;1.10;;;10.40;99.90;;;;;;5009343;28;20581;-74
2023/06/29 10:37:48;;;;;;;1.35;1.10;;;10.30;99.90;;;;;;5008612;28;20684;-75
2023/06/29 10:40:20;;;;;;;3.83;1.35;;;10.30;99.90;;;;;;5009007;28;20199;-76
2023/06/29 10:42:58;;;;;;;1.95;1.40;;;10.30;99.90;;;;;;5012670;28;20199;-75
2023/06/29 10:45:35;;;;;;;3.15;1.27;;;10.30;99.90;;;;;;5029586;28;20190;-75
2023/06/29 10:48:15;;;;;;;2.03;1.60;;;10.20;99.90;;;;;;5015271;28;20281;-74
2023/06/29 10:50:50;;;;;;;1.55;1.35;;;10.20;99.90;;;;;;5010077;28;20607;-75
2023/06/29 10:53:23;;;;;;;3.63;1.48;;;10.10;99.90;;;;;;5013713;28;20246;-77
2023/06/29 10:55:58;;;;;;;1.70;1.40;;;10.10;99.90;;;;;;5014085;28;20187;-82
2023/06/29 10:58:34;;;;;;;2.40;1.30;;;10.10;99.90;;;;;;5002187;28;20241;-75
2023/06/29 11:01:06;;;;;;;3.42;1.50;;;10.10;99.90;;;;;;5007830;28;20210;-75
2023/06/29 11:03:37;;;;;;;1.73;1.30;;;10.00;99.90;;;;;;5013244;28;20253;-76
2023/06/29 11:06:10;;;;;;;3.47;1.50;;;10.00;99.90;;;;;;5013311;28;20206;-75
2023/06/29 11:08:41;;;;;;;1.90;1.40;;;10.00;99.90;;;;;;5013266;28;20202;-76
2023/06/29 11:11:18;;;;;;;2.88;1.15;;;10.00;99.90;;;;;;5013799;28;20195;-77
2023/06/29 11:13:49;;;;;;;2.95;1.50;;;10.00;99.90;;;;;;5013326;28;20238;-76
2023/06/29 11:16:22;;;;;;;2.08;1.48;;;10.00;99.90;;;;;;5013378;28;20231;-75
2023/06/29 11:18:53;;;;;;;2.53;1.20;;;10.00;99.90;;;;;;5013351;28;20206;-75
2023/06/29 11:21:29;;;;;;;2.45;1.15;;;9.90;99.90;;;;;;5013178;28;20245;-75
2023/06/29 11:24:00;;;;;;;2.50;1.38;;;10.00;99.90;;;;;;5013428;28;20202;-76
2023/06/29 11:26:31;;;;;;;1.95;1.30;;;10.00;99.90;;;;;;5013148;28;20207;-79
2023/06/29 11:29:02;;;;;;;2.70;1.50;;;9.90;99.90;;;;;;5013251;28;20191;-75
2023/06/29 11:31:34;;;;;;;2.42;1.60;;;9.90;99.90;;;;;;5015244;28;20257;-75
2023/06/29 11:34:05;;;;;;;1.55;1.45;;;9.90;99.90;;;;;;5017104;28;20229;-75
2023/06/29 11:36:38;;;;;;;2.85;1.60;;;10.00;99.90;;;;;;5017229;28;20195;-78
2023/06/29 11:39:10;;;;;;;2.58;1.73;;;9.90;99.90;;;;;;5016948;28;20202;-76
2023/06/29 11:41:42;;;;;;;2.00;1.52;;;9.90;99.90;;;;;;5017067;28;20673;-77
2023/06/29 11:44:14;;;;;;;2.65;1.38;;;9.90;99.90;;;;;;5016725;28;20213;-74
2023/06/29 11:46:46;;;;;;;1.70;1.30;;;9.80;99.90;;;;;;5016960;28;20195;-75
2023/06/29 11:49:19;;;;;;;2.85;1.50;;;9.80;99.90;;;;;;5016942;28;20195;-75
2023/06/29 11:51:53;;;;;;;3.13;1.50;;;9.80;99.90;;;;;;5015753;28;20199;-75
2023/06/29 11:54:24;;;;;;;1.58;1.27;;;9.80;99.90;;;;;;5011430;28;20215;-76
2023/06/29 11:56:57;;;;;;;2.30;1.30;;;9.80;99.90;;;;;;5014960;28;20206;-75
2023/06/29 11:59:28;;;;;;;2.63;1.80;;;9.80;99.90;;;;;;5015623;28;20203;-75
2023/06/29 12:02:00;;;;;;;3.85;1.98;;;9.80;99.90;;;;;;5015843;28;20203;-77
2023/06/29 12:04:31;;;;;;;2.58;1.70;;;9.80;99.90;;;;;;5014485;28;20213;-75
2023/06/29 12:07:04;;;;;;;1.60;1.33;;;9.70;99.90;;;;;;5008814;28;20199;-75
2023/06/29 12:09:36;;;;;;;1.55;1.45;;;9.70;99.90;;;;;;5014311;28;20198;-76
2023/06/29 12:12:08;;;;;;;2.45;1.23;;;9.70;99.90;;;;;;5014456;28;20691;-75
2023/06/29 12:14:39;;;;;;;1.45;1.15;;;9.70;99.90;;;;;;5002117;28;20583;-75
2023/06/29 12:17:22;;;;;;;2.13;1.50;;;9.60;99.90;;;;;;5015909;28;20203;-75
2023/06/29 12:19:55;;;;;;;3.03;1.67;;;9.60;99.90;;;;;;5013389;28;20238;-75
2023/06/29 12:22:32;;;;;;;2.30;1.50;;;9.60;99.90;;;;;;5004774;28;20195;-75
2023/06/29 12:25:04;;;;;;;1.67;1.30;;;9.50;99.90;;;;;;5013624;28;20209;-83
2023/06/29 12:27:35;;;;;;;1.98;1.50;;;9.60;99.90;;;;;;5016033;28;20206;-81
2023/06/29 12:30:07;;;;;;;1.70;1.40;;;9.50;99.90;;;;;;5012408;28;20191;-80
2023/06/29 12:32:38;;;;;;;2.00;1.42;;;9.50;99.90;;;;;;5015115;28;20223;-77
2023/06/29 12:35:09;;;;;;;2.60;1.23;;;9.50;99.90;;;;;;5015247;28;20682;-80
2023/06/29 12:37:43;;;;;;;1.75;1.55;;;9.50;99.90;;;;;;5013938;28;20199;-81
2023/06/29 12:40:15;;;;;;;1.75;1.50;;;9.50;99.90;;;;;;5015844;28;20201;-78
2023/06/29 12:42:46;;;;;;;2.35;1.50;;;9.40;99.90;;;;;;5005818;28;20260;-79
2023/06/29 12:45:17;;;;;;;2.20;1.60;;;9.40;99.90;;;;;;5015380;28;20667;-80
2023/06/29 12:47:48;;;;;;;2.33;1.58;;;9.30;99.90;;;;;;5014254;28;20800;-76
2023/06/29 12:50:19;;;;;;;2.35;1.60;;;9.30;99.90;;;;;;5014603;28;20191;-81
2023/06/29 12:52:53;;;;;;;2.17;1.52;;;9.30;99.90;;;;;;5014204;28;20225;-83
2023/06/29 12:55:24;;;;;;;2.95;1.50;;;9.20;99.90;;;;;;5015093;28;20195;-76
2023/06/29 12:57:55;;;;;;;2.83;1.85;;;9.20;99.90;;;;;;5015618;28;20191;-82
2023/06/29 13:00:26;;;;;;;2.38;1.60;;;9.10;99.90;;;;;;5015938;28;20191;-77
2023/06/29 13:02:58;;;;;;;3.03;1.45;;;9.10;99.90;;;;;;4997610;28;20196;-77
2023/06/29 13:05:29;;;;;;;3.38;1.80;;;9.10;99.90;;;;;;5014607;28;20195;-75
2023/06/29 13:08:03;;;;;;;3.03;1.80;;;9.10;99.90;;;;;;5012822;28;20612;-76
2023/06/29 13:10:34;;;;;;;2.53;1.48;;;9.10;99.90;;;;;;5000001;28;20195;-75
2023/06/29 13:13:05;;;;;;;3.15;1.65;;;9.10;99.90;;;;;;5014292;28;20281;-75